Nearby METAR Reports

 

KCXP - Carson City, Nevada, USA
Distance from station: WSW 2mi, 3km
Updated: Sat, Apr-29-2017 8:15am PDT
Clear
Clear
 Wind from calm
Wind: Calm
Temperature: 37°F , 3°C
Dew Point: 18°F , -8°C
Humidity: 45%
Barometer: 30.30 inHg , 1026.1 hPa
Clouds: Clear
Visibility: 10 miles , 16 km
2017/04/29 15:15 KCXP 291515Z AUTO 00000KT 10SM CLR 03/M08 A3030 RMK AO2
KRNO - Reno, Nevada, USA
Distance from station: N 21mi, 34km
Updated: Sat, Apr-29-2017 7:55am PDT
Clear
Clear
 Wind from E
Wind: E 3 mph , 6 km/h
Temperature: 43°F , 6°C
Dew Point: 21°F , -6°C
Humidity: 42%
Barometer: 30.28 inHg , 1025.4 hPa
Clouds: Clear
Visibility: 10 miles , 16 km
2017/04/29 14:55 KRNO 291455Z 08003KT 10SM CLR 06/M06 A3028 RMK AO2 SLP243 T00561061 53011
 
KTRK - Truckee Tahoe, California, USA
Distance from station: WNW 24mi, 38km
Updated: Sat, Apr-29-2017 7:45am PDT
Clear
Clear
 Wind from calm
Wind: Calm
Temperature: 30°F , -1°C
Dew Point: 19°F , -7°C
Humidity: 64%
Barometer: 30.26 inHg , 1024.7 hPa
Clouds: Clear
Visibility: 10 miles , 16 km
2017/04/29 14:45 KTRK 291445Z 00000KT 10SM SKC M01/M07 A3026 RMK NOSPECI
KTVL - South Lake Tahoe, California, USA
Distance from station: SW 26mi, 42km
Updated: Sat, Apr-29-2017 7:53am PDT
Clear
Clear
 Wind from calm
Wind: Calm
Temperature: 36°F , 2°C
Dew Point: 16°F , -9°C
Humidity: 44%
Barometer: 30.23 inHg , 1023.7 hPa
Clouds: Clear
Visibility: 10 miles , 16 km
2017/04/29 14:53 KTVL 291453Z AUTO 00000KT 10SM CLR 02/M09 A3023 RMK AO2 SLP228 T00171094 51012
 
KRTS - Reno/Stead, Nevada, USA
Distance from station: NNW 34mi, 54km
Updated: Sat, Apr-29-2017 8:15am PDT
Clear
Clear
 Wind from E
Wind: E 9 mph , 15 km/h
Temperature: 41°F , 5°C
Wind Chill: 35°F , 2°C
Dew Point: 19°F , -7°C
Humidity: 42%
Barometer: 30.27 inHg , 1025.1 hPa
Clouds: Clear
Visibility: 10 miles , 16 km
2017/04/29 15:15 KRTS 291515Z AUTO 10008KT 10SM CLR 05/M07 A3027 RMK AO2
KBLU - Emigrant Gap, California, USA
Distance from station: W 54mi, 87km
Updated: Sat, Apr-29-2017 7:52am PDT
Clear
Clear
 Wind from ENE
Wind: ENE 12 mph , 19 km/h, Gust: 24 mph , 39 km/h
Temperature: 43°F , 6°C
Wind Chill: 37°F , 3°C
Dew Point: 14°F , -10°C
Humidity: 31%
Barometer: 30.16 inHg , 1021.3 hPa
Clouds: Clear
Visibility: 10 miles , 16 km
2017/04/29 14:52 KBLU 291452Z AUTO 07010G21KT 010V120 10SM CLR 06/M10 A3016 RMK AO2 PK WND 06027/1403 SLP188 T00611100 53009 TSNO
 
KNFL - Fallon Nas, Nevada, USA
Distance from station: ENE 56mi, 89km
Updated: Sat, Apr-29-2017 7:56am PDT
Clear
Clear
 Wind from SSW
Wind: SSW 5 mph , 7 km/h
Temperature: 43°F , 6°C
Wind Chill: 40°F , 4°C
Dew Point: 19°F , -7°C
Humidity: 39%
Barometer: 30.29 inHg , 1025.7 hPa
Clouds: Clear
Visibility: 10 miles , 16 km
2017/04/29 14:56 KNFL 291456Z AUTO 21004KT 10SM CLR 06/M07 A3029 RMK AO2 SLP216 T00611067 53014
KBAN - Bridgeport(Mcmwt, California, USA
Distance from station: S 60mi, 96km
Updated: Sat, Apr-29-2017 7:52am PDT

 Wind from calm
Wind: Calm
Temperature: 28°F , -2°C
Dew Point: 16°F , -9°C
Humidity: 59%
Barometer: 30.25 inHg , 1024.4 hPa
Visibility: 10 miles , 16 km
2017/04/29 14:52 KBAN 291452Z AUTO 00000KT 10SM M02/M09 A3025 RMK AO2 SLP248 T10171094 $
 
KPVF - Placerville, California, USA
Distance from station: WSW 66mi, 105km
Updated: Sat, Apr-29-2017 8:15am PDT
Clear
Clear
 Wind from ESE
Wind: ESE 5 mph , 7 km/h
Temperature: 57°F , 14°C
Dew Point: 19°F , -7°C
Humidity: 23%
Barometer: 30.12 inHg , 1020 hPa
Clouds: Clear
Visibility: 10 miles , 16 km
2017/04/29 15:15 KPVF 291515Z AUTO 12004KT 10SM CLR 14/M07 A3012 RMK AO1
KGOO - Grass Valley, California, USA
Distance from station: W 70mi, 112km
Updated: Sat, Apr-29-2017 8:20am PDT
Clear
Clear
 Wind from ENE
Wind: ENE 6 mph , 9 km/h, Gust: 17 mph , 28 km/h
Temperature: 55°F , 13°C
Dew Point: 16°F , -9°C
Humidity: 21%
Barometer: 30.14 inHg , 1020.7 hPa
Clouds: Clear
Visibility: 10 miles , 16 km
2017/04/29 15:20 KGOO 291520Z AUTO 07005G15KT 10SM CLR 13/M09 A3014 RMK AO1
 
KAUN - Auburn Muni, California, USA
Distance from station: WSW 76mi, 123km
Updated: Sat, Apr-29-2017 8:15am PDT
Clear
Clear
 Wind from ENE
Wind: ENE 5 mph , 7 km/h
Temperature: 61°F , 16°C
Dew Point: 30°F , -1°C
Humidity: 31%
Barometer: 30.11 inHg , 1019.6 hPa
Clouds: Clear
Visibility: 10 miles , 16 km
2017/04/29 15:15 KAUN 291515Z AUTO 06004KT 10SM CLR 16/M01 A3011 RMK AO1
KLOL - Lovelock, Nevada, USA
Distance from station: NE 85mi, 137km
Updated: Sat, Apr-29-2017 7:53am PDT
Clear
Clear
 Wind from calm
Wind: Calm
Temperature: 37°F , 3°C
Dew Point: 21°F , -6°C
Humidity: 52%
Barometer: 30.29 inHg , 1025.7 hPa
Clouds: Clear
Visibility: 10 miles , 16 km
2017/04/29 14:53 KLOL 291453Z AUTO 00000KT 10SM CLR 03/M06 A3029 RMK AO2 SLP263 T00281056 53014 TSNO
 
KLHM - Lincoln, California, USA
Distance from station: WSW 91mi, 146km
Updated: Sat, Apr-29-2017 8:15am PDT
Clear
Clear
 Wind from NNW
Wind: NNW 6 mph , 9 km/h
Temperature: 54°F , 12°C
Dew Point: 37°F , 3°C
Humidity: 54%
Barometer: 30.10 inHg , 1019.3 hPa
Clouds: Clear
Visibility: 10 miles , 16 km
2017/04/29 15:15 KLHM 291515Z AUTO 33005KT 10SM CLR 12/03 A3010 RMK AO1
KBAB - Beale Afb/Marysv, California, USA
Distance from station: W 92mi, 148km
Updated: Sat, Apr-29-2017 7:58am PDT
Clear
Clear
 Wind from NW
Wind: NW 10 mph , 17 km/h
Temperature: 54°F , 12°C
Dew Point: 41°F , 5°C
Humidity: 63%
Barometer: 30.11 inHg , 1019.6 hPa
Clouds: Clear
Visibility: 10 miles , 16 km
2017/04/29 14:58 KBAB 291458Z AUTO 32009KT 10SM CLR 12/05 A3011 RMK AO2 SLP199 T01160048 53008 $
 
KMHR - Mather Field, California, USA
Distance from station: WSW 97mi, 156km
Updated: Sat, Apr-29-2017 7:45am PDT
Clear
Clear
 Wind from N
Wind: N 6 mph , 9 km/h
Temperature: 54°F , 12°C
Dew Point: 36°F , 2°C
Humidity: 51%
Barometer: 30.09 inHg , 1019 hPa
Clouds: Clear
Visibility: 10 miles , 16 km
2017/04/29 14:45 KMHR 291445Z 35005KT 10SM SKC 12/02 A3009
KMCC - Mcclellan Afb, California, USA
Distance from station: WSW 99mi, 159km
Updated: Sat, Apr-29-2017 8:15am PDT
Clear
Clear
 Wind from NNW
Wind: NNW 9 mph , 15 km/h
Temperature: 54°F , 12°C
Dew Point: 39°F , 4°C
Humidity: 58%
Barometer: 30.12 inHg , 1020 hPa
Clouds: Clear
Visibility: 10 miles , 16 km
2017/04/29 15:15 KMCC 291515Z AUTO 33008KT 10SM CLR 12/04 A3012 RMK AO2
 
KMYV - Marysville, California, USA
Distance from station: W 100mi, 161km
Updated: Sat, Apr-29-2017 7:53am PDT
Clear
Clear
 Wind from N
Wind: N 9 mph , 15 km/h
Temperature: 55°F , 13°C
Dew Point: 37°F , 3°C
Humidity: 51%
Barometer: 30.12 inHg , 1020 hPa
Clouds: Clear
Visibility: 10 miles , 16 km
2017/04/29 14:53 KMYV 291453Z AUTO 35008KT 10SM CLR 13/03 A3012 RMK AO2 SLP203 T01280028 53006